sensor_id;sensor_type;location;lat;lon;timestamp;P1;durP1;ratioP1;P2;durP2;ratioP2
83499;SDS011;73433;50.908;13.746;2024-01-15T00:02:18;4.57;;;4.37;;
83499;SDS011;73433;50.908;13.746;2024-01-15T00:04:46;4.93;;;4.53;;
83499;SDS011;73433;50.908;13.746;2024-01-15T00:07:13;4.73;;;4.43;;
83499;SDS011;73433;50.908;13.746;2024-01-15T00:09:40;5.53;;;5.03;;
83499;SDS011;73433;50.908;13.746;2024-01-15T00:12:08;5.10;;;4.80;;
83499;SDS011;73433;50.908;13.746;2024-01-15T00:14:35;4.30;;;4.00;;
83499;SDS011;73433;50.908;13.746;2024-01-15T00:17:02;5.47;;;5.10;;
83499;SDS011;73433;50.908;13.746;2024-01-15T00:19:30;5.80;;;5.30;;
83499;SDS011;73433;50.908;13.746;2024-01-15T00:21:59;5.03;;;4.70;;
83499;SDS011;73433;50.908;13.746;2024-01-15T00:24:26;5.40;;;5.03;;
83499;SDS011;73433;50.908;13.746;2024-01-15T00:26:53;5.50;;;5.00;;
83499;SDS011;73433;50.908;13.746;2024-01-15T00:29:21;6.37;;;5.80;;
83499;SDS011;73433;50.908;13.746;2024-01-15T00:31:48;5.57;;;5.10;;
83499;SDS011;73433;50.908;13.746;2024-01-15T00:34:16;5.27;;;4.97;;
83499;SDS011;73433;50.908;13.746;2024-01-15T00:36:43;5.40;;;5.10;;
83499;SDS011;73433;50.908;13.746;2024-01-15T00:39:10;7.03;;;5.70;;
83499;SDS011;73433;50.908;13.746;2024-01-15T00:41:38;5.67;;;5.17;;
83499;SDS011;73433;50.908;13.746;2024-01-15T00:44:05;6.70;;;6.10;;
83499;SDS011;73433;50.908;13.746;2024-01-15T00:46:33;6.40;;;5.60;;
83499;SDS011;73433;50.908;13.746;2024-01-15T00:49:10;6.70;;;5.87;;
83499;SDS011;73433;50.908;13.746;2024-01-15T00:51:38;5.90;;;5.43;;
83499;SDS011;73433;50.908;13.746;2024-01-15T00:54:06;5.60;;;5.10;;
83499;SDS011;73433;50.908;13.746;2024-01-15T00:56:34;6.83;;;6.13;;
83499;SDS011;73433;50.908;13.746;2024-01-15T00:59:01;9.70;;;6.67;;
83499;SDS011;73433;50.908;13.746;2024-01-15T01:01:29;6.87;;;6.27;;
83499;SDS011;73433;50.908;13.746;2024-01-15T01:03:56;7.60;;;6.97;;
83499;SDS011;73433;50.908;13.746;2024-01-15T01:06:24;7.33;;;6.10;;
83499;SDS011;73433;50.908;13.746;2024-01-15T01:08:51;7.37;;;6.27;;
83499;SDS011;73433;50.908;13.746;2024-01-15T01:11:18;8.83;;;6.77;;
83499;SDS011;73433;50.908;13.746;2024-01-15T01:13:46;7.03;;;5.60;;
83499;SDS011;73433;50.908;13.746;2024-01-15T01:16:13;10.70;;;6.17;;
83499;SDS011;73433;50.908;13.746;2024-01-15T01:18:40;7.40;;;5.93;;
83499;SDS011;73433;50.908;13.746;2024-01-15T01:21:08;7.13;;;6.60;;
83499;SDS011;73433;50.908;13.746;2024-01-15T01:23:35;6.53;;;5.87;;
83499;SDS011;73433;50.908;13.746;2024-01-15T01:26:02;6.50;;;5.90;;
83499;SDS011;73433;50.908;13.746;2024-01-15T01:28:30;7.37;;;6.13;;
83499;SDS011;73433;50.908;13.746;2024-01-15T01:30:57;7.47;;;6.37;;
83499;SDS011;73433;50.908;13.746;2024-01-15T01:33:24;6.83;;;6.33;;
83499;SDS011;73433;50.908;13.746;2024-01-15T01:35:52;7.93;;;7.23;;
83499;SDS011;73433;50.908;13.746;2024-01-15T01:38:20;6.00;;;5.50;;
83499;SDS011;73433;50.908;13.746;2024-01-15T01:40:47;6.70;;;6.10;;
83499;SDS011;73433;50.908;13.746;2024-01-15T01:43:14;5.63;;;5.10;;
83499;SDS011;73433;50.908;13.746;2024-01-15T01:45:41;6.00;;;5.60;;
83499;SDS011;73433;50.908;13.746;2024-01-15T01:48:08;5.60;;;5.17;;
83499;SDS011;73433;50.908;13.746;2024-01-15T01:50:36;6.97;;;4.83;;
83499;SDS011;73433;50.908;13.746;2024-01-15T01:53:04;6.80;;;6.20;;
83499;SDS011;73433;50.908;13.746;2024-01-15T01:55:31;6.53;;;6.03;;
83499;SDS011;73433;50.908;13.746;2024-01-15T01:58:00;6.00;;;5.60;;
83499;SDS011;73433;50.908;13.746;2024-01-15T02:00:28;5.90;;;5.50;;
83499;SDS011;73433;50.908;13.746;2024-01-15T02:02:57;7.90;;;5.93;;
83499;SDS011;73433;50.908;13.746;2024-01-15T02:05:24;10.53;;;6.23;;
83499;SDS011;73433;50.908;13.746;2024-01-15T02:07:52;7.13;;;6.50;;
83499;SDS011;73433;50.908;13.746;2024-01-15T02:10:19;6.03;;;5.60;;
83499;SDS011;73433;50.908;13.746;2024-01-15T02:12:48;7.57;;;6.57;;
83499;SDS011;73433;50.908;13.746;2024-01-15T02:15:15;8.77;;;6.27;;
83499;SDS011;73433;50.908;13.746;2024-01-15T02:20:30;6.50;;;5.83;;
83499;SDS011;73433;50.908;13.746;2024-01-15T02:25:36;6.40;;;5.90;;
83499;SDS011;73433;50.908;13.746;2024-01-15T02:28:14;6.23;;;5.73;;
83499;SDS011;73433;50.908;13.746;2024-01-15T02:30:43;7.47;;;6.47;;
83499;SDS011;73433;50.908;13.746;2024-01-15T02:33:11;6.60;;;6.10;;
83499;SDS011;73433;50.908;13.746;2024-01-15T02:35:39;7.27;;;6.67;;
83499;SDS011;73433;50.908;13.746;2024-01-15T02:38:07;7.97;;;6.23;;
83499;SDS011;73433;50.908;13.746;2024-01-15T02:40:35;5.00;;;4.60;;
83499;SDS011;73433;50.908;13.746;2024-01-15T02:43:03;6.33;;;5.90;;
83499;SDS011;73433;50.908;13.746;2024-01-15T02:45:30;8.47;;;7.60;;
83499;SDS011;73433;50.908;13.746;2024-01-15T02:47:58;7.17;;;6.60;;
83499;SDS011;73433;50.908;13.746;2024-01-15T02:50:25;8.00;;;7.20;;
83499;SDS011;73433;50.908;13.746;2024-01-15T02:52:52;7.10;;;6.50;;
83499;SDS011;73433;50.908;13.746;2024-01-15T02:55:20;8.23;;;7.53;;
83499;SDS011;73433;50.908;13.746;2024-01-15T02:57:47;8.03;;;7.23;;
83499;SDS011;73433;50.908;13.746;2024-01-15T03:00:14;10.37;;;7.00;;
83499;SDS011;73433;50.908;13.746;2024-01-15T03:02:44;7.60;;;6.37;;
83499;SDS011;73433;50.908;13.746;2024-01-15T03:05:14;6.50;;;5.70;;
83499;SDS011;73433;50.908;13.746;2024-01-15T03:07:42;7.10;;;6.40;;
83499;SDS011;73433;50.908;13.746;2024-01-15T03:10:09;5.83;;;5.23;;
83499;SDS011;73433;50.908;13.746;2024-01-15T03:12:37;7.90;;;6.70;;
83499;SDS011;73433;50.908;13.746;2024-01-15T03:15:04;7.57;;;6.97;;
83499;SDS011;73433;50.908;13.746;2024-01-15T03:17:32;8.07;;;7.20;;
83499;SDS011;73433;50.908;13.746;2024-01-15T03:20:00;7.70;;;6.90;;
83499;SDS011;73433;50.908;13.746;2024-01-15T03:22:27;8.20;;;6.77;;
83499;SDS011;73433;50.908;13.746;2024-01-15T03:24:55;11.20;;;6.23;;
83499;SDS011;73433;50.908;13.746;2024-01-15T03:27:22;8.13;;;7.33;;
83499;SDS011;73433;50.908;13.746;2024-01-15T03:29:50;8.80;;;7.00;;
83499;SDS011;73433;50.908;13.746;2024-01-15T03:32:17;7.33;;;6.60;;
83499;SDS011;73433;50.908;13.746;2024-01-15T03:34:46;8.40;;;7.67;;
83499;SDS011;73433;50.908;13.746;2024-01-15T03:37:14;8.13;;;6.83;;
83499;SDS011;73433;50.908;13.746;2024-01-15T03:39:43;7.30;;;6.53;;
83499;SDS011;73433;50.908;13.746;2024-01-15T03:42:11;7.43;;;6.20;;
83499;SDS011;73433;50.908;13.746;2024-01-15T03:44:38;9.50;;;7.30;;
83499;SDS011;73433;50.908;13.746;2024-01-15T03:47:05;6.90;;;6.30;;
83499;SDS011;73433;50.908;13.746;2024-01-15T03:49:32;8.40;;;7.43;;
83499;SDS011;73433;50.908;13.746;2024-01-15T03:52:00;10.03;;;7.30;;
83499;SDS011;73433;50.908;13.746;2024-01-15T03:54:27;8.53;;;7.70;;
83499;SDS011;73433;50.908;13.746;2024-01-15T03:56:55;9.10;;;7.33;;
83499;SDS011;73433;50.908;13.746;2024-01-15T03:59:22;10.10;;;7.77;;
83499;SDS011;73433;50.908;13.746;2024-01-15T04:01:49;7.37;;;6.23;;
83499;SDS011;73433;50.908;13.746;2024-01-15T04:04:20;8.83;;;6.67;;
83499;SDS011;73433;50.908;13.746;2024-01-15T04:06:50;17.33;;;8.10;;
83499;SDS011;73433;50.908;13.746;2024-01-15T04:09:17;8.30;;;7.40;;
83499;SDS011;73433;50.908;13.746;2024-01-15T04:11:44;7.50;;;6.80;;
83499;SDS011;73433;50.908;13.746;2024-01-15T04:14:12;8.77;;;7.07;;
83499;SDS011;73433;50.908;13.746;2024-01-15T04:16:39;9.93;;;7.40;;
83499;SDS011;73433;50.908;13.746;2024-01-15T04:19:06;10.97;;;8.97;;
83499;SDS011;73433;50.908;13.746;2024-01-15T04:21:34;10.70;;;7.63;;
83499;SDS011;73433;50.908;13.746;2024-01-15T04:24:01;8.90;;;8.07;;
83499;SDS011;73433;50.908;13.746;2024-01-15T04:26:28;10.03;;;9.13;;
83499;SDS011;73433;50.908;13.746;2024-01-15T04:28:55;10.43;;;7.70;;
83499;SDS011;73433;50.908;13.746;2024-01-15T04:31:25;7.83;;;7.07;;
83499;SDS011;73433;50.908;13.746;2024-01-15T04:33:56;5.47;;;4.93;;
83499;SDS011;73433;50.908;13.746;2024-01-15T04:36:23;7.53;;;6.80;;
83499;SDS011;73433;50.908;13.746;2024-01-15T04:38:50;10.00;;;8.17;;
83499;SDS011;73433;50.908;13.746;2024-01-15T04:41:18;6.97;;;6.40;;
83499;SDS011;73433;50.908;13.746;2024-01-15T04:43:46;7.90;;;7.27;;
83499;SDS011;73433;50.908;13.746;2024-01-15T04:46:13;9.03;;;6.53;;
83499;SDS011;73433;50.908;13.746;2024-01-15T04:48:41;8.47;;;7.17;;
83499;SDS011;73433;50.908;13.746;2024-01-15T04:51:08;9.73;;;7.40;;
83499;SDS011;73433;50.908;13.746;2024-01-15T04:53:36;9.70;;;7.13;;
83499;SDS011;73433;50.908;13.746;2024-01-15T04:56:03;7.27;;;6.50;;
83499;SDS011;73433;50.908;13.746;2024-01-15T04:58:31;9.10;;;8.00;;
83499;SDS011;73433;50.908;13.746;2024-01-15T05:00:58;8.93;;;7.30;;
83499;SDS011;73433;50.908;13.746;2024-01-15T05:03:26;8.33;;;7.20;;
83499;SDS011;73433;50.908;13.746;2024-01-15T05:05:53;12.90;;;7.30;;
83499;SDS011;73433;50.908;13.746;2024-01-15T05:08:21;10.73;;;8.97;;
83499;SDS011;73433;50.908;13.746;2024-01-15T05:10:48;10.20;;;7.67;;
83499;SDS011;73433;50.908;13.746;2024-01-15T05:13:15;9.60;;;6.60;;
83499;SDS011;73433;50.908;13.746;2024-01-15T05:15:43;14.60;;;8.70;;
83499;SDS011;73433;50.908;13.746;2024-01-15T05:18:10;14.37;;;8.90;;
83499;SDS011;73433;50.908;13.746;2024-01-15T05:20:38;8.67;;;7.20;;
83499;SDS011;73433;50.908;13.746;2024-01-15T05:23:05;10.10;;;7.57;;
83499;SDS011;73433;50.908;13.746;2024-01-15T05:25:33;7.87;;;6.63;;
83499;SDS011;73433;50.908;13.746;2024-01-15T05:28:00;10.77;;;7.60;;
83499;SDS011;73433;50.908;13.746;2024-01-15T05:30:28;9.70;;;7.30;;
83499;SDS011;73433;50.908;13.746;2024-01-15T05:32:56;15.53;;;8.47;;
83499;SDS011;73433;50.908;13.746;2024-01-15T05:35:24;6.90;;;6.40;;
83499;SDS011;73433;50.908;13.746;2024-01-15T05:37:52;12.70;;;8.83;;
83499;SDS011;73433;50.908;13.746;2024-01-15T05:40:19;10.60;;;7.20;;
83499;SDS011;73433;50.908;13.746;2024-01-15T05:42:46;6.47;;;5.87;;
83499;SDS011;73433;50.908;13.746;2024-01-15T05:45:14;9.80;;;6.60;;
83499;SDS011;73433;50.908;13.746;2024-01-15T05:47:41;6.70;;;6.10;;
83499;SDS011;73433;50.908;13.746;2024-01-15T05:50:10;8.00;;;6.20;;
83499;SDS011;73433;50.908;13.746;2024-01-15T05:52:38;9.43;;;6.60;;
83499;SDS011;73433;50.908;13.746;2024-01-15T05:55:05;7.93;;;6.33;;
83499;SDS011;73433;50.908;13.746;2024-01-15T05:57:32;9.03;;;6.73;;
83499;SDS011;73433;50.908;13.746;2024-01-15T06:00:00;6.23;;;5.57;;
83499;SDS011;73433;50.908;13.746;2024-01-15T06:02:29;8.10;;;7.50;;
83499;SDS011;73433;50.908;13.746;2024-01-15T06:04:57;9.83;;;7.17;;
83499;SDS011;73433;50.908;13.746;2024-01-15T06:07:24;11.50;;;7.90;;
83499;SDS011;73433;50.908;13.746;2024-01-15T06:09:51;11.27;;;7.30;;
83499;SDS011;73433;50.908;13.746;2024-01-15T06:12:19;8.40;;;7.50;;
83499;SDS011;73433;50.908;13.746;2024-01-15T06:14:46;10.40;;;7.17;;
83499;SDS011;73433;50.908;13.746;2024-01-15T06:17:13;5.90;;;5.40;;
83499;SDS011;73433;50.908;13.746;2024-01-15T06:19:41;9.70;;;6.90;;
83499;SDS011;73433;50.908;13.746;2024-01-15T06:22:08;10.17;;;6.43;;
83499;SDS011;73433;50.908;13.746;2024-01-15T06:24:36;7.37;;;5.83;;
83499;SDS011;73433;50.908;13.746;2024-01-15T06:27:03;6.73;;;6.13;;
83499;SDS011;73433;50.908;13.746;2024-01-15T06:29:31;5.80;;;5.40;;
83499;SDS011;73433;50.908;13.746;2024-01-15T06:31:59;9.57;;;6.83;;
83499;SDS011;73433;50.908;13.746;2024-01-15T06:34:26;6.10;;;5.60;;
83499;SDS011;73433;50.908;13.746;2024-01-15T06:36:53;7.10;;;6.03;;
83499;SDS011;73433;50.908;13.746;2024-01-15T06:39:21;6.10;;;5.80;;
83499;SDS011;73433;50.908;13.746;2024-01-15T06:41:48;7.77;;;6.97;;
83499;SDS011;73433;50.908;13.746;2024-01-15T06:44:15;8.40;;;6.50;;
83499;SDS011;73433;50.908;13.746;2024-01-15T06:46:43;6.87;;;5.80;;
83499;SDS011;73433;50.908;13.746;2024-01-15T06:49:11;6.87;;;6.30;;
83499;SDS011;73433;50.908;13.746;2024-01-15T06:51:39;6.80;;;6.20;;
83499;SDS011;73433;50.908;13.746;2024-01-15T06:54:06;9.77;;;6.60;;
83499;SDS011;73433;50.908;13.746;2024-01-15T06:56:34;7.47;;;6.30;;
83499;SDS011;73433;50.908;13.746;2024-01-15T06:59:01;6.87;;;6.30;;
83499;SDS011;73433;50.908;13.746;2024-01-15T07:01:29;8.27;;;6.83;;
83499;SDS011;73433;50.908;13.746;2024-01-15T07:03:56;6.83;;;5.90;;
83499;SDS011;73433;50.908;13.746;2024-01-15T07:06:24;7.33;;;6.50;;
83499;SDS011;73433;50.908;13.746;2024-01-15T07:08:52;7.47;;;4.80;;
83499;SDS011;73433;50.908;13.746;2024-01-15T07:11:19;5.73;;;5.13;;
83499;SDS011;73433;50.908;13.746;2024-01-15T07:13:46;6.17;;;5.70;;
83499;SDS011;73433;50.908;13.746;2024-01-15T07:16:13;5.80;;;5.30;;
83499;SDS011;73433;50.908;13.746;2024-01-15T07:19:00;6.23;;;5.40;;
83499;SDS011;73433;50.908;13.746;2024-01-15T07:21:28;5.57;;;5.17;;
83499;SDS011;73433;50.908;13.746;2024-01-15T07:23:56;5.60;;;5.10;;
83499;SDS011;73433;50.908;13.746;2024-01-15T07:26:23;8.50;;;6.00;;
83499;SDS011;73433;50.908;13.746;2024-01-15T07:28:51;9.97;;;6.10;;
83499;SDS011;73433;50.908;13.746;2024-01-15T07:31:19;6.83;;;5.70;;
83499;SDS011;73433;50.908;13.746;2024-01-15T07:33:47;5.30;;;4.90;;
83499;SDS011;73433;50.908;13.746;2024-01-15T07:36:15;4.67;;;4.47;;
83499;SDS011;73433;50.908;13.746;2024-01-15T07:38:42;7.17;;;6.67;;
83499;SDS011;73433;50.908;13.746;2024-01-15T07:41:13;6.10;;;5.50;;
83499;SDS011;73433;50.908;13.746;2024-01-15T07:43:40;7.10;;;5.73;;
83499;SDS011;73433;50.908;13.746;2024-01-15T07:46:07;5.33;;;4.93;;
83499;SDS011;73433;50.908;13.746;2024-01-15T07:48:35;5.83;;;5.53;;
83499;SDS011;73433;50.908;13.746;2024-01-15T07:51:02;6.10;;;5.50;;
83499;SDS011;73433;50.908;13.746;2024-01-15T07:53:30;7.00;;;6.50;;
83499;SDS011;73433;50.908;13.746;2024-01-15T07:55:58;7.00;;;5.80;;
83499;SDS011;73433;50.908;13.746;2024-01-15T07:58:25;8.93;;;4.70;;
83499;SDS011;73433;50.908;13.746;2024-01-15T08:00:52;5.17;;;4.73;;
83499;SDS011;73433;50.908;13.746;2024-01-15T08:03:20;5.10;;;4.73;;
83499;SDS011;73433;50.908;13.746;2024-01-15T08:05:47;6.00;;;5.37;;
83499;SDS011;73433;50.908;13.746;2024-01-15T08:08:17;6.30;;;5.80;;
83499;SDS011;73433;50.908;13.746;2024-01-15T08:10:45;7.00;;;6.17;;
83499;SDS011;73433;50.908;13.746;2024-01-15T08:13:12;7.90;;;4.93;;
83499;SDS011;73433;50.908;13.746;2024-01-15T08:15:40;5.17;;;4.87;;
83499;SDS011;73433;50.908;13.746;2024-01-15T08:18:08;4.23;;;4.03;;
83499;SDS011;73433;50.908;13.746;2024-01-15T08:20:35;5.33;;;4.97;;
83499;SDS011;73433;50.908;13.746;2024-01-15T08:23:04;6.63;;;6.03;;
83499;SDS011;73433;50.908;13.746;2024-01-15T08:25:31;6.23;;;5.83;;
83499;SDS011;73433;50.908;13.746;2024-01-15T08:27:59;5.97;;;5.57;;
83499;SDS011;73433;50.908;13.746;2024-01-15T08:30:26;7.07;;;6.37;;
83499;SDS011;73433;50.908;13.746;2024-01-15T08:32:55;4.80;;;4.53;;
83499;SDS011;73433;50.908;13.746;2024-01-15T08:35:34;4.73;;;4.43;;
83499;SDS011;73433;50.908;13.746;2024-01-15T08:38:01;6.50;;;4.77;;
83499;SDS011;73433;50.908;13.746;2024-01-15T08:40:29;4.30;;;3.90;;
83499;SDS011;73433;50.908;13.746;2024-01-15T08:42:57;6.10;;;5.57;;
83499;SDS011;73433;50.908;13.746;2024-01-15T08:45:24;4.67;;;4.47;;
83499;SDS011;73433;50.908;13.746;2024-01-15T08:47:53;4.73;;;4.33;;
83499;SDS011;73433;50.908;13.746;2024-01-15T08:50:20;5.00;;;4.60;;
83499;SDS011;73433;50.908;13.746;2024-01-15T08:52:48;5.43;;;4.90;;
83499;SDS011;73433;50.908;13.746;2024-01-15T08:55:15;5.00;;;4.57;;
83499;SDS011;73433;50.908;13.746;2024-01-15T08:57:42;4.67;;;4.37;;
83499;SDS011;73433;50.908;13.746;2024-01-15T09:00:10;4.83;;;4.27;;
83499;SDS011;73433;50.908;13.746;2024-01-15T09:02:37;5.00;;;4.60;;
83499;SDS011;73433;50.908;13.746;2024-01-15T09:05:05;4.33;;;4.13;;
83499;SDS011;73433;50.908;13.746;2024-01-15T09:07:33;4.53;;;4.23;;
83499;SDS011;73433;50.908;13.746;2024-01-15T09:10:00;6.13;;;4.73;;
83499;SDS011;73433;50.908;13.746;2024-01-15T09:12:27;3.70;;;3.33;;
83499;SDS011;73433;50.908;13.746;2024-01-15T09:14:56;3.10;;;3.00;;
83499;SDS011;73433;50.908;13.746;2024-01-15T09:17:23;4.00;;;3.90;;
83499;SDS011;73433;50.908;13.746;2024-01-15T09:19:50;3.90;;;3.70;;
83499;SDS011;73433;50.908;13.746;2024-01-15T09:22:18;4.23;;;4.03;;
83499;SDS011;73433;50.908;13.746;2024-01-15T09:24:45;4.67;;;4.27;;
83499;SDS011;73433;50.908;13.746;2024-01-15T09:27:12;5.40;;;5.03;;
83499;SDS011;73433;50.908;13.746;2024-01-15T09:29:40;3.70;;;3.40;;
83499;SDS011;73433;50.908;13.746;2024-01-15T09:32:09;5.37;;;4.60;;
83499;SDS011;73433;50.908;13.746;2024-01-15T09:34:36;3.50;;;3.40;;
83499;SDS011;73433;50.908;13.746;2024-01-15T09:37:04;5.63;;;5.20;;
83499;SDS011;73433;50.908;13.746;2024-01-15T09:39:32;5.70;;;5.30;;
83499;SDS011;73433;50.908;13.746;2024-01-15T09:41:59;7.33;;;5.27;;
83499;SDS011;73433;50.908;13.746;2024-01-15T09:44:27;5.63;;;5.23;;
83499;SDS011;73433;50.908;13.746;2024-01-15T09:46:55;10.30;;;5.53;;
83499;SDS011;73433;50.908;13.746;2024-01-15T09:49:24;4.43;;;4.03;;
83499;SDS011;73433;50.908;13.746;2024-01-15T09:51:51;4.17;;;4.00;;
83499;SDS011;73433;50.908;13.746;2024-01-15T09:54:32;6.53;;;4.90;;
83499;SDS011;73433;50.908;13.746;2024-01-15T09:57:00;5.60;;;5.30;;
83499;SDS011;73433;50.908;13.746;2024-01-15T09:59:28;6.40;;;5.80;;
83499;SDS011;73433;50.908;13.746;2024-01-15T10:01:56;9.63;;;6.13;;
83499;SDS011;73433;50.908;13.746;2024-01-15T10:04:25;5.07;;;4.77;;
83499;SDS011;73433;50.908;13.746;2024-01-15T10:06:53;4.57;;;4.37;;
83499;SDS011;73433;50.908;13.746;2024-01-15T10:09:21;4.47;;;4.27;;
83499;SDS011;73433;50.908;13.746;2024-01-15T10:11:49;5.80;;;5.37;;
83499;SDS011;73433;50.908;13.746;2024-01-15T10:14:16;4.40;;;4.10;;
83499;SDS011;73433;50.908;13.746;2024-01-15T10:16:43;6.10;;;5.67;;
83499;SDS011;73433;50.908;13.746;2024-01-15T10:19:10;6.20;;;5.57;;
83499;SDS011;73433;50.908;13.746;2024-01-15T10:21:38;7.20;;;4.77;;
83499;SDS011;73433;50.908;13.746;2024-01-15T10:24:06;5.03;;;4.60;;
83499;SDS011;73433;50.908;13.746;2024-01-15T10:26:33;5.13;;;4.73;;
83499;SDS011;73433;50.908;13.746;2024-01-15T10:29:00;3.97;;;3.77;;
83499;SDS011;73433;50.908;13.746;2024-01-15T10:31:28;6.70;;;5.80;;
83499;SDS011;73433;50.908;13.746;2024-01-15T10:34:11;6.83;;;6.20;;
83499;SDS011;73433;50.908;13.746;2024-01-15T10:36:40;6.60;;;4.77;;
83499;SDS011;73433;50.908;13.746;2024-01-15T10:39:07;8.43;;;6.80;;
83499;SDS011;73433;50.908;13.746;2024-01-15T10:41:35;5.17;;;4.67;;
83499;SDS011;73433;50.908;13.746;2024-01-15T10:44:02;4.30;;;4.20;;
83499;SDS011;73433;50.908;13.746;2024-01-15T10:46:29;3.87;;;3.77;;
83499;SDS011;73433;50.908;13.746;2024-01-15T10:48:58;11.00;;;6.40;;
83499;SDS011;73433;50.908;13.746;2024-01-15T10:51:25;7.13;;;5.57;;
83499;SDS011;73433;50.908;13.746;2024-01-15T10:53:53;4.60;;;4.20;;
83499;SDS011;73433;50.908;13.746;2024-01-15T10:56:21;6.80;;;5.00;;
83499;SDS011;73433;50.908;13.746;2024-01-15T10:58:50;4.30;;;4.10;;
83499;SDS011;73433;50.908;13.746;2024-01-15T11:01:20;4.70;;;4.40;;
83499;SDS011;73433;50.908;13.746;2024-01-15T11:03:48;6.90;;;4.70;;
83499;SDS011;73433;50.908;13.746;2024-01-15T11:06:16;6.87;;;6.13;;
83499;SDS011;73433;50.908;13.746;2024-01-15T11:08:50;5.13;;;4.73;;
83499;SDS011;73433;50.908;13.746;2024-01-15T11:11:19;5.03;;;4.57;;
83499;SDS011;73433;50.908;13.746;2024-01-15T11:13:48;8.50;;;4.53;;
83499;SDS011;73433;50.908;13.746;2024-01-15T11:16:18;5.13;;;4.60;;
83499;SDS011;73433;50.908;13.746;2024-01-15T11:21:25;4.70;;;4.50;;
83499;SDS011;73433;50.908;13.746;2024-01-15T11:23:57;4.67;;;4.23;;
83499;SDS011;73433;50.908;13.746;2024-01-15T11:32:09;5.87;;;4.77;;
83499;SDS011;73433;50.908;13.746;2024-01-15T11:34:50;4.67;;;4.47;;
83499;SDS011;73433;50.908;13.746;2024-01-15T11:37:26;5.67;;;4.70;;
83499;SDS011;73433;50.908;13.746;2024-01-15T11:39:55;5.50;;;4.37;;
83499;SDS011;73433;50.908;13.746;2024-01-15T11:42:27;3.93;;;3.73;;
83499;SDS011;73433;50.908;13.746;2024-01-15T11:44:55;4.70;;;4.50;;
83499;SDS011;73433;50.908;13.746;2024-01-15T11:47:50;4.50;;;4.17;;
83499;SDS011;73433;50.908;13.746;2024-01-15T11:50:29;3.80;;;3.60;;
83499;SDS011;73433;50.908;13.746;2024-01-15T11:53:03;4.80;;;4.50;;
83499;SDS011;73433;50.908;13.746;2024-01-15T11:55:35;4.20;;;3.90;;
83499;SDS011;73433;50.908;13.746;2024-01-15T11:58:09;4.53;;;4.23;;
83499;SDS011;73433;50.908;13.746;2024-01-15T12:00:40;4.37;;;3.80;;
83499;SDS011;73433;50.908;13.746;2024-01-15T12:03:09;4.70;;;4.30;;
83499;SDS011;73433;50.908;13.746;2024-01-15T12:05:37;4.20;;;4.00;;
83499;SDS011;73433;50.908;13.746;2024-01-15T12:08:05;3.77;;;3.57;;
83499;SDS011;73433;50.908;13.746;2024-01-15T12:10:39;4.20;;;3.80;;
83499;SDS011;73433;50.908;13.746;2024-01-15T12:13:11;3.63;;;3.07;;
83499;SDS011;73433;50.908;13.746;2024-01-15T12:15:40;4.20;;;3.90;;
83499;SDS011;73433;50.908;13.746;2024-01-15T12:18:11;14.33;;;8.20;;
83499;SDS011;73433;50.908;13.746;2024-01-15T12:20:40;6.37;;;5.67;;
83499;SDS011;73433;50.908;13.746;2024-01-15T12:23:09;6.27;;;5.47;;
83499;SDS011;73433;50.908;13.746;2024-01-15T12:25:37;10.83;;;6.70;;
83499;SDS011;73433;50.908;13.746;2024-01-15T12:28:06;8.17;;;7.07;;
83499;SDS011;73433;50.908;13.746;2024-01-15T12:30:33;11.97;;;7.67;;
83499;SDS011;73433;50.908;13.746;2024-01-15T12:33:03;7.43;;;5.23;;
83499;SDS011;73433;50.908;13.746;2024-01-15T12:35:31;5.57;;;5.10;;
83499;SDS011;73433;50.908;13.746;2024-01-15T12:38:00;22.07;;;9.97;;
83499;SDS011;73433;50.908;13.746;2024-01-15T12:40:32;5.40;;;5.07;;
83499;SDS011;73433;50.908;13.746;2024-01-15T12:43:03;7.20;;;4.10;;
83499;SDS011;73433;50.908;13.746;2024-01-15T12:45:32;5.40;;;4.87;;
83499;SDS011;73433;50.908;13.746;2024-01-15T12:47:59;4.70;;;4.50;;
83499;SDS011;73433;50.908;13.746;2024-01-15T12:50:27;4.87;;;4.27;;
83499;SDS011;73433;50.908;13.746;2024-01-15T12:52:54;4.97;;;4.70;;
83499;SDS011;73433;50.908;13.746;2024-01-15T12:55:22;4.10;;;3.80;;
83499;SDS011;73433;50.908;13.746;2024-01-15T12:57:49;5.50;;;4.30;;
83499;SDS011;73433;50.908;13.746;2024-01-15T13:00:21;5.30;;;5.00;;
83499;SDS011;73433;50.908;13.746;2024-01-15T13:02:48;4.70;;;4.27;;
83499;SDS011;73433;50.908;13.746;2024-01-15T13:05:16;6.60;;;4.47;;
83499;SDS011;73433;50.908;13.746;2024-01-15T13:07:45;5.00;;;4.80;;
83499;SDS011;73433;50.908;13.746;2024-01-15T13:10:12;8.37;;;5.83;;
83499;SDS011;73433;50.908;13.746;2024-01-15T13:12:40;5.00;;;4.70;;
83499;SDS011;73433;50.908;13.746;2024-01-15T13:15:08;5.40;;;4.97;;
83499;SDS011;73433;50.908;13.746;2024-01-15T13:17:41;4.37;;;4.07;;
83499;SDS011;73433;50.908;13.746;2024-01-15T13:20:10;5.37;;;4.97;;
83499;SDS011;73433;50.908;13.746;2024-01-15T13:22:39;8.47;;;5.83;;
83499;SDS011;73433;50.908;13.746;2024-01-15T13:25:11;4.10;;;4.00;;
83499;SDS011;73433;50.908;13.746;2024-01-15T13:27:38;5.17;;;4.87;;
83499;SDS011;73433;50.908;13.746;2024-01-15T13:30:07;6.90;;;6.40;;
83499;SDS011;73433;50.908;13.746;2024-01-15T13:32:35;9.70;;;6.37;;
83499;SDS011;73433;50.908;13.746;2024-01-15T13:35:03;7.90;;;6.30;;
83499;SDS011;73433;50.908;13.746;2024-01-15T13:37:36;7.47;;;6.27;;
83499;SDS011;73433;50.908;13.746;2024-01-15T13:40:05;7.43;;;6.63;;
83499;SDS011;73433;50.908;13.746;2024-01-15T13:42:35;6.20;;;5.70;;
83499;SDS011;73433;50.908;13.746;2024-01-15T13:45:05;6.47;;;5.70;;
83499;SDS011;73433;50.908;13.746;2024-01-15T13:47:34;7.97;;;5.77;;
83499;SDS011;73433;50.908;13.746;2024-01-15T13:50:02;5.60;;;5.10;;
83499;SDS011;73433;50.908;13.746;2024-01-15T13:52:30;6.60;;;4.93;;
83499;SDS011;73433;50.908;13.746;2024-01-15T13:54:57;5.87;;;5.27;;
83499;SDS011;73433;50.908;13.746;2024-01-15T13:57:25;7.40;;;5.70;;
83499;SDS011;73433;50.908;13.746;2024-01-15T13:59:55;4.00;;;3.80;;
83499;SDS011;73433;50.908;13.746;2024-01-15T14:02:22;6.60;;;6.07;;
83499;SDS011;73433;50.908;13.746;2024-01-15T14:04:51;4.30;;;4.10;;
83499;SDS011;73433;50.908;13.746;2024-01-15T14:07:19;8.73;;;5.20;;
83499;SDS011;73433;50.908;13.746;2024-01-15T14:09:46;5.93;;;5.50;;
83499;SDS011;73433;50.908;13.746;2024-01-15T14:12:13;4.73;;;4.33;;
83499;SDS011;73433;50.908;13.746;2024-01-15T14:14:41;4.33;;;4.03;;
83499;SDS011;73433;50.908;13.746;2024-01-15T14:17:08;4.43;;;4.27;;
83499;SDS011;73433;50.908;13.746;2024-01-15T14:19:35;5.03;;;4.70;;
83499;SDS011;73433;50.908;13.746;2024-01-15T14:22:03;5.10;;;4.70;;
83499;SDS011;73433;50.908;13.746;2024-01-15T14:24:31;5.00;;;4.50;;
83499;SDS011;73433;50.908;13.746;2024-01-15T14:26:58;6.20;;;5.43;;
83499;SDS011;73433;50.908;13.746;2024-01-15T14:29:26;4.30;;;4.10;;
83499;SDS011;73433;50.908;13.746;2024-01-15T14:31:53;5.23;;;4.93;;
83499;SDS011;73433;50.908;13.746;2024-01-15T14:34:21;5.17;;;4.70;;
83499;SDS011;73433;50.908;13.746;2024-01-15T14:36:52;5.50;;;5.20;;
83499;SDS011;73433;50.908;13.746;2024-01-15T14:39:23;5.93;;;5.53;;
83499;SDS011;73433;50.908;13.746;2024-01-15T14:41:51;5.20;;;4.90;;
83499;SDS011;73433;50.908;13.746;2024-01-15T14:44:19;5.07;;;4.60;;
83499;SDS011;73433;50.908;13.746;2024-01-15T14:46:46;5.43;;;5.03;;
83499;SDS011;73433;50.908;13.746;2024-01-15T14:49:13;6.07;;;5.00;;
83499;SDS011;73433;50.908;13.746;2024-01-15T14:51:41;6.10;;;5.50;;
83499;SDS011;73433;50.908;13.746;2024-01-15T14:54:09;6.97;;;6.50;;